createdAt,value
2018-02-24T00:00:17.805Z,-0.30
2018-02-24T00:02:46.836Z,-0.50
2018-02-24T00:05:15.120Z,-0.50
2018-02-24T00:07:43.614Z,-0.50
2018-02-24T00:10:11.965Z,-0.50
2018-02-24T00:12:40.218Z,-0.40
2018-02-24T00:15:08.693Z,-0.50
2018-02-24T00:17:37.719Z,-0.30
2018-02-24T00:20:06.051Z,-0.40
2018-02-24T00:22:42.595Z,-0.40
2018-02-24T00:25:10.877Z,-0.40
2018-02-24T00:27:39.178Z,-0.40
2018-02-24T00:30:11.370Z,-0.50
2018-02-24T00:32:39.626Z,-0.50
2018-02-24T00:35:07.882Z,-0.50
2018-02-24T00:37:36.162Z,-0.60
2018-02-24T00:40:04.446Z,-0.50
2018-02-24T00:42:32.831Z,-0.50
2018-02-24T00:45:01.237Z,-0.60
2018-02-24T00:47:30.256Z,-0.80
2018-02-24T00:49:58.575Z,-0.80
2018-02-24T00:52:27.219Z,-0.80
2018-02-24T00:54:55.654Z,-1.00
2018-02-24T00:57:24.024Z,-1.00
2018-02-24T00:59:52.594Z,-0.80
2018-02-24T01:02:20.846Z,-0.80
2018-02-24T01:04:49.186Z,-0.90
2018-02-24T01:07:18.238Z,-1.10
2018-02-24T01:09:46.483Z,-1.20
2018-02-24T01:12:14.918Z,-1.20
2018-02-24T01:14:43.369Z,-1.10
2018-02-24T01:17:11.681Z,-1.20
2018-02-24T01:19:39.942Z,-1.10
2018-02-24T01:22:08.227Z,-0.90
2018-02-24T01:24:36.482Z,-0.80
2018-02-24T01:27:04.737Z,-0.80
2018-02-24T01:29:33.018Z,-0.90
2018-02-24T01:32:01.331Z,-1.00
2018-02-24T01:34:29.586Z,-0.90
2018-02-24T01:36:58.158Z,-1.00
2018-02-24T01:39:26.477Z,-1.20
2018-02-24T01:41:54.741Z,-1.10
2018-02-24T01:44:23.022Z,-1.10
2018-02-24T01:46:51.302Z,-1.10
2018-02-24T01:49:19.552Z,-1.10
2018-02-24T01:51:47.825Z,-1.20
2018-02-24T01:54:16.141Z,-1.40
2018-02-24T01:56:44.820Z,-1.40
2018-02-24T01:59:13.590Z,-1.40
2018-02-24T02:01:41.891Z,-1.30
2018-02-24T02:04:10.141Z,-1.40
2018-02-24T02:06:38.416Z,-1.40
2018-02-24T02:09:06.661Z,-1.50
2018-02-24T02:11:34.937Z,-1.70
2018-02-24T02:14:03.213Z,-1.70
2018-02-24T02:16:31.847Z,-1.70
2018-02-24T02:19:00.226Z,-1.60
2018-02-24T02:21:28.691Z,-1.50
2018-02-24T02:23:56.934Z,-1.50
2018-02-24T02:26:25.196Z,-1.40
2018-02-24T02:28:53.477Z,-1.50
2018-02-24T02:31:21.726Z,-1.50
2018-02-24T02:33:50.199Z,-1.50
2018-02-24T02:36:18.475Z,-1.60
2018-02-24T02:38:46.722Z,-1.60
2018-02-24T02:41:15.099Z,-1.70
2018-02-24T02:43:45.438Z,-1.70
2018-02-24T02:46:13.713Z,-1.70
2018-02-24T02:48:41.957Z,-1.60
2018-02-24T02:51:10.234Z,-1.60
2018-02-24T02:53:38.491Z,-1.60
2018-02-24T02:56:07.506Z,-1.70
2018-02-24T02:58:36.638Z,-1.80
2018-02-24T03:01:04.877Z,-1.70
2018-02-24T03:03:33.135Z,-1.80
2018-02-24T03:06:01.466Z,-1.80
2018-02-24T03:08:29.725Z,-1.80
2018-02-24T03:10:57.970Z,-2.00
2018-02-24T03:13:26.249Z,-1.80
2018-02-24T03:15:54.518Z,-1.80
2018-02-24T03:18:24.714Z,-1.90
2018-02-24T03:20:52.986Z,-2.00
2018-02-24T03:23:21.239Z,-1.90
2018-02-24T03:25:49.538Z,-1.90
2018-02-24T03:28:17.870Z,-1.90
2018-02-24T03:30:46.127Z,-2.00
2018-02-24T03:33:14.378Z,-2.00
2018-02-24T03:35:42.653Z,-2.10
2018-02-24T03:38:10.905Z,-2.20
2018-02-24T03:40:39.202Z,-2.20
2018-02-24T03:43:07.602Z,-2.20
2018-02-24T03:45:36.621Z,-2.20
2018-02-24T03:48:04.986Z,-2.20
2018-02-24T03:50:34.077Z,-2.20
2018-02-24T03:53:02.334Z,-2.30
2018-02-24T03:55:30.583Z,-2.10
2018-02-24T03:57:58.855Z,-2.00
2018-02-24T04:00:27.234Z,-2.00
2018-02-24T04:02:55.482Z,-2.20
2018-02-24T04:05:23.838Z,-2.20
2018-02-24T04:07:52.119Z,-2.10
2018-02-24T04:10:20.361Z,-2.10
2018-02-24T04:12:48.961Z,-2.00
2018-02-24T04:15:17.210Z,-2.00
2018-02-24T04:17:45.465Z,-2.10
2018-02-24T04:20:13.749Z,-2.10
2018-02-24T04:22:41.998Z,-2.10
2018-02-24T04:25:10.262Z,-2.30
2018-02-24T04:27:38.537Z,-2.40
2018-02-24T04:30:06.794Z,-2.40
2018-02-24T04:32:35.046Z,-2.40
2018-02-24T04:35:03.619Z,-2.40
2018-02-24T04:37:34.077Z,-2.30
2018-02-24T04:40:02.331Z,-2.30
2018-02-24T04:42:30.606Z,-2.30
2018-02-24T04:44:58.864Z,-2.30
2018-02-24T04:47:27.110Z,-2.30
2018-02-24T04:49:55.387Z,-2.40
2018-02-24T04:52:24.415Z,-2.20
2018-02-24T04:54:52.654Z,-2.30
2018-02-24T04:57:21.178Z,-2.30
2018-02-24T04:59:49.451Z,-2.20
2018-02-24T05:02:17.890Z,-2.30
2018-02-24T05:04:47.250Z,-2.30
2018-02-24T05:07:15.507Z,-2.40
2018-02-24T05:09:45.776Z,-2.30
2018-02-24T05:12:14.042Z,-2.30
2018-02-24T05:14:43.810Z,-2.40
2018-02-24T05:17:12.062Z,-2.30
2018-02-24T05:19:40.586Z,-2.40
2018-02-24T05:22:08.829Z,-2.60
2018-02-24T05:24:37.083Z,-2.60
2018-02-24T05:27:05.362Z,-2.70
2018-02-24T05:29:34.386Z,-2.70
2018-02-24T05:32:02.647Z,-2.70
2018-02-24T05:34:30.926Z,-2.60
2018-02-24T05:36:59.178Z,-2.60
2018-02-24T05:39:28.214Z,-2.60
2018-02-24T05:41:56.917Z,-2.60
2018-02-24T05:44:25.178Z,-2.70
2018-02-24T05:46:53.434Z,-2.60
2018-02-24T05:49:21.709Z,-2.60
2018-02-24T05:51:49.966Z,-2.70
2018-02-24T05:54:18.234Z,-2.60
2018-02-24T05:56:47.295Z,-2.70
2018-02-24T05:59:15.567Z,-2.70
2018-02-24T06:01:43.823Z,-2.70
2018-02-24T06:04:12.646Z,-2.80
2018-02-24T06:06:40.898Z,-2.80
2018-02-24T06:09:09.158Z,-2.80
2018-02-24T06:11:37.430Z,-2.90
2018-02-24T06:14:05.681Z,-2.90
2018-02-24T06:16:33.932Z,-2.70
2018-02-24T06:19:02.215Z,-2.70
2018-02-24T06:21:30.606Z,-2.80
2018-02-24T06:23:58.866Z,-2.70
2018-02-24T06:26:27.532Z,-2.60
2018-02-24T06:28:55.776Z,-2.60
2018-02-24T06:31:24.789Z,-2.80
2018-02-24T06:33:53.062Z,-2.80
2018-02-24T06:36:21.318Z,-2.80
2018-02-24T06:38:49.567Z,-2.70
2018-02-24T06:41:17.847Z,-2.70
2018-02-24T06:43:47.611Z,-2.70
2018-02-24T06:46:15.866Z,-2.70
2018-02-24T06:48:44.444Z,-2.60
2018-02-24T06:51:12.695Z,-2.60
2018-02-24T06:53:40.953Z,-2.60
2018-02-24T06:56:09.232Z,-2.60
2018-02-24T06:58:37.478Z,-2.50
2018-02-24T07:01:05.729Z,-2.40
2018-02-24T07:03:34.011Z,-2.20
2018-02-24T07:06:02.695Z,-2.30
2018-02-24T07:08:30.950Z,-2.20
2018-02-24T07:10:59.422Z,-2.20
2018-02-24T07:13:27.678Z,-2.10
2018-02-24T07:15:55.941Z,-2.00
2018-02-24T07:18:24.248Z,-1.90
2018-02-24T07:20:52.462Z,-2.00
2018-02-24T07:23:20.726Z,-1.90
2018-02-24T07:25:49.778Z,-1.90
2018-02-24T07:28:18.027Z,-1.90
2018-02-24T07:30:46.281Z,-1.80
2018-02-24T07:33:14.902Z,-1.80
2018-02-24T07:35:43.157Z,-1.90
2018-02-24T07:38:11.407Z,-1.80
2018-02-24T07:40:39.689Z,-1.70
2018-02-24T07:43:08.715Z,-1.50
2018-02-24T07:45:36.968Z,-1.60
2018-02-24T07:48:05.241Z,-1.50
2018-02-24T07:50:33.490Z,-1.50
2018-02-24T07:53:01.754Z,-1.40
2018-02-24T07:55:30.311Z,-1.30
2018-02-24T07:57:58.654Z,-1.40
2018-02-24T08:00:26.922Z,-1.40
2018-02-24T08:02:55.206Z,-1.40
2018-02-24T08:05:23.454Z,-1.30
2018-02-24T08:07:51.869Z,-1.20
2018-02-24T08:10:20.153Z,-1.00
2018-02-24T08:12:48.422Z,-1.00
2018-02-24T08:15:16.686Z,-1.00
2018-02-24T08:17:45.777Z,-1.00
2018-02-24T08:20:14.030Z,-1.10
2018-02-24T08:22:42.446Z,-0.90
2018-02-24T08:25:11.494Z,-0.90
2018-02-24T08:27:39.831Z,-0.90
2018-02-24T08:30:08.070Z,-0.90
2018-02-24T08:32:36.617Z,-0.90
2018-02-24T08:35:04.858Z,-0.70
2018-02-24T08:37:33.118Z,-0.70
2018-02-24T08:40:01.702Z,-0.60
2018-02-24T08:42:30.726Z,-0.50
2018-02-24T08:44:58.990Z,-0.60
2018-02-24T08:47:27.261Z,-0.40
2018-02-24T08:49:55.521Z,-0.40
2018-02-24T08:52:23.774Z,-0.30
2018-02-24T08:54:52.338Z,-0.30
2018-02-24T08:57:20.591Z,-0.20
2018-02-24T08:59:48.854Z,-0.20
2018-02-24T09:02:17.481Z,-0.10
2018-02-24T09:04:45.783Z,0.00
2018-02-24T09:07:14.028Z,0.10
2018-02-24T09:09:42.598Z,0.10
2018-02-24T09:12:10.850Z,0.10
2018-02-24T09:14:39.102Z,0.20
2018-02-24T09:17:07.395Z,0.30
2018-02-24T09:19:36.412Z,0.40
2018-02-24T09:22:04.666Z,0.40
2018-02-24T09:24:32.981Z,0.50
2018-02-24T09:27:01.237Z,0.60
2018-02-24T09:29:29.490Z,0.60
2018-02-24T09:31:57.766Z,0.70
2018-02-24T09:34:26.790Z,0.90
2018-02-24T09:36:55.038Z,0.80
2018-02-24T09:39:24.070Z,1.00
2018-02-24T09:41:52.558Z,1.00
2018-02-24T09:44:20.794Z,1.00
2018-02-24T09:46:50.145Z,1.10
2018-02-24T09:49:18.394Z,1.10
2018-02-24T09:51:46.655Z,1.10
2018-02-24T09:54:14.931Z,1.30
2018-02-24T09:56:43.950Z,1.50
2018-02-24T09:59:12.190Z,1.50
2018-02-24T10:01:40.478Z,1.70
2018-02-24T10:04:08.735Z,2.00
2018-02-24T10:06:36.977Z,2.60
2018-02-24T10:09:05.568Z,3.20
2018-02-24T10:11:34.206Z,3.60
2018-02-24T10:14:03.466Z,4.40
2018-02-24T10:16:31.882Z,4.40
2018-02-24T10:19:00.902Z,4.90
2018-02-24T10:21:29.214Z,4.90
2018-02-24T10:23:57.494Z,5.00
2018-02-24T10:26:25.734Z,5.20
2018-02-24T10:28:54.102Z,5.40
2018-02-24T10:31:22.827Z,5.60
2018-02-24T10:33:51.074Z,6.00
2018-02-24T10:36:19.326Z,6.30
2018-02-24T10:38:47.589Z,6.30
2018-02-24T10:41:16.597Z,6.30
2018-02-24T10:43:45.614Z,6.40
2018-02-24T10:46:13.890Z,6.40
2018-02-24T10:48:42.146Z,6.40
2018-02-24T10:51:10.414Z,6.10
2018-02-24T10:53:39.522Z,6.70
2018-02-24T10:56:07.774Z,6.70
2018-02-24T10:58:36.025Z,7.10
2018-02-24T11:01:05.478Z,7.60
2018-02-24T11:03:34.637Z,8.30
2018-02-24T11:06:02.875Z,8.20
2018-02-24T11:08:31.145Z,8.50
2018-02-24T11:10:59.422Z,8.30
2018-02-24T11:13:27.680Z,8.60
2018-02-24T11:15:58.265Z,9.10
2018-02-24T11:18:26.690Z,9.10
2018-02-24T11:20:54.938Z,9.20
2018-02-24T11:23:23.346Z,9.70
2018-02-24T11:25:52.367Z,10.40
2018-02-24T11:28:23.522Z,10.30
2018-02-24T11:30:51.818Z,10.70
2018-02-24T11:33:20.067Z,10.70
2018-02-24T11:35:48.314Z,10.90
2018-02-24T11:38:17.658Z,11.10
2018-02-24T11:40:45.921Z,11.10
2018-02-24T11:43:14.183Z,11.30
2018-02-24T11:45:42.462Z,11.20
2018-02-24T11:48:10.722Z,11.10
2018-02-24T11:50:38.990Z,11.40
2018-02-24T11:53:07.279Z,11.60
2018-02-24T11:55:36.299Z,12.20
2018-02-24T11:58:04.550Z,12.20
2018-02-24T12:00:32.897Z,12.50
2018-02-24T12:03:02.672Z,13.00
2018-02-24T12:05:30.987Z,13.00
2018-02-24T12:07:59.257Z,13.20
2018-02-24T12:10:27.810Z,13.40
2018-02-24T12:12:56.127Z,13.70
2018-02-24T12:15:24.498Z,13.80
2018-02-24T12:17:53.801Z,13.90
2018-02-24T12:20:22.062Z,14.00
2018-02-24T12:22:50.382Z,14.10
2018-02-24T12:25:18.634Z,14.20
2018-02-24T12:27:46.887Z,14.40
2018-02-24T12:30:15.172Z,14.70
2018-02-24T12:32:47.453Z,15.00
2018-02-24T12:35:15.698Z,15.30
2018-02-24T12:37:43.968Z,15.50
2018-02-24T12:40:12.214Z,15.50
2018-02-24T12:42:40.525Z,15.70
2018-02-24T12:45:09.118Z,15.90
2018-02-24T12:47:37.439Z,15.80
2018-02-24T12:50:05.685Z,15.80
2018-02-24T12:52:33.950Z,15.80
2018-02-24T12:55:02.207Z,15.90
2018-02-24T12:57:30.459Z,16.20
2018-02-24T12:59:58.806Z,16.50
2018-02-24T13:02:27.072Z,16.60
2018-02-24T13:04:55.306Z,16.70
2018-02-24T13:07:25.142Z,16.90
2018-02-24T13:09:53.390Z,17.00
2018-02-24T13:12:21.642Z,17.30
2018-02-24T13:14:50.058Z,17.20
2018-02-24T13:17:18.350Z,17.30
2018-02-24T13:19:48.842Z,17.40
2018-02-24T13:22:17.893Z,17.20
2018-02-24T13:24:46.138Z,17.20
2018-02-24T13:27:14.377Z,16.80
2018-02-24T13:29:43.015Z,16.40
2018-02-24T13:32:11.348Z,16.10
2018-02-24T13:34:40.486Z,15.40
2018-02-24T13:37:08.883Z,15.30
2018-02-24T13:39:38.334Z,14.90
2018-02-24T13:42:07.346Z,14.40
2018-02-24T13:44:35.626Z,14.30
2018-02-24T13:47:04.143Z,14.90
2018-02-24T13:49:32.394Z,15.40
2018-02-24T13:52:01.045Z,16.00
2018-02-24T13:54:29.935Z,15.80
2018-02-24T13:56:58.187Z,15.60
2018-02-24T13:59:26.618Z,15.30
2018-02-24T14:01:54.946Z,15.10
2018-02-24T14:04:23.360Z,15.10
2018-02-24T14:06:52.393Z,14.00
2018-02-24T14:09:20.646Z,13.90
2018-02-24T14:11:49.075Z,13.60
2018-02-24T14:14:17.521Z,14.10
2018-02-24T14:16:46.786Z,14.90
2018-02-24T14:19:15.136Z,15.40
2018-02-24T14:21:43.546Z,16.10
2018-02-24T14:24:12.607Z,16.90
2018-02-24T14:26:41.006Z,16.90
2018-02-24T14:29:09.270Z,17.20
2018-02-24T14:31:37.678Z,17.20
2018-02-24T14:34:06.320Z,17.40
2018-02-24T14:36:35.105Z,17.10
2018-02-24T14:39:03.408Z,16.80
2018-02-24T14:41:31.774Z,16.80
2018-02-24T14:44:00.190Z,16.80
2018-02-24T14:46:29.350Z,17.10
2018-02-24T14:48:57.598Z,17.10
2018-02-24T14:51:25.958Z,17.10
2018-02-24T14:53:54.242Z,17.30
2018-02-24T14:56:22.499Z,17.10
2018-02-24T14:58:50.810Z,17.20
2018-02-24T15:01:19.076Z,17.00
2018-02-24T15:03:47.322Z,16.80
2018-02-24T15:06:16.879Z,16.30
2018-02-24T15:08:46.028Z,16.50
2018-02-24T15:11:15.044Z,16.50
2018-02-24T15:13:45.472Z,16.40
2018-02-24T15:16:16.998Z,16.50
2018-02-24T15:18:47.015Z,16.40
2018-02-24T15:21:16.224Z,16.50
2018-02-24T15:23:44.596Z,16.50
2018-02-24T15:26:13.727Z,16.50
2018-02-24T15:28:42.031Z,16.40
2018-02-24T15:31:10.411Z,16.20
2018-02-24T15:33:38.805Z,16.10
2018-02-24T15:36:07.259Z,16.00
2018-02-24T15:38:35.485Z,15.60
2018-02-24T15:41:04.344Z,14.20
2018-02-24T15:43:33.636Z,11.80
2018-02-24T15:46:02.078Z,11.80
2018-02-24T15:48:30.342Z,11.10
2018-02-24T15:50:58.670Z,11.00
2018-02-24T15:53:26.928Z,11.80
2018-02-24T15:55:55.315Z,11.50
2018-02-24T15:58:23.590Z,10.80
2018-02-24T16:00:51.841Z,10.20
2018-02-24T16:03:20.265Z,9.70
2018-02-24T16:05:48.505Z,9.30
2018-02-24T16:08:17.162Z,8.80
2018-02-24T16:10:46.642Z,8.50
2018-02-24T16:13:14.878Z,8.30
2018-02-24T16:15:43.136Z,8.10
2018-02-24T16:18:11.506Z,7.90
2018-02-24T16:20:39.742Z,7.70
2018-02-24T16:23:08.202Z,7.60
2018-02-24T16:25:36.974Z,7.40
2018-02-24T16:28:06.230Z,7.30
2018-02-24T16:30:34.566Z,7.10
2018-02-24T16:33:03.010Z,7.10
2018-02-24T16:35:31.249Z,6.90
2018-02-24T16:37:59.498Z,6.80
2018-02-24T16:40:28.802Z,6.70
2018-02-24T16:42:57.094Z,6.50
2018-02-24T16:45:25.338Z,6.50
2018-02-24T16:47:54.181Z,6.40
2018-02-24T16:50:24.380Z,6.10
2018-02-24T16:52:52.622Z,6.10
2018-02-24T16:55:20.885Z,6.10
2018-02-24T16:57:49.207Z,5.90
2018-02-24T17:00:17.578Z,5.70
2018-02-24T17:02:45.841Z,5.60
2018-02-24T17:05:14.073Z,5.50
2018-02-24T17:07:43.342Z,5.40
2018-02-24T17:10:11.785Z,5.30
2018-02-24T17:12:41.044Z,5.30
2018-02-24T17:15:09.882Z,5.30
2018-02-24T17:17:38.734Z,5.30
2018-02-24T17:20:07.785Z,5.10
2018-02-24T17:22:36.069Z,5.10
2018-02-24T17:25:04.326Z,5.10
2018-02-24T17:27:32.572Z,4.90
2018-02-24T17:30:01.094Z,4.90
2018-02-24T17:32:29.688Z,4.80
2018-02-24T17:34:58.114Z,4.70
2018-02-24T17:37:26.348Z,4.60
2018-02-24T17:39:54.616Z,4.50
2018-02-24T17:42:22.854Z,4.40
2018-02-24T17:44:51.182Z,4.40
2018-02-24T17:47:19.442Z,4.30
2018-02-24T17:49:47.678Z,4.30
2018-02-24T17:52:16.678Z,4.20
2018-02-24T17:54:45.443Z,4.20
2018-02-24T17:57:13.678Z,4.10
2018-02-24T17:59:42.054Z,4.10
2018-02-24T18:02:10.334Z,4.00
2018-02-24T18:04:38.551Z,4.00
2018-02-24T18:07:07.558Z,3.80
2018-02-24T18:09:35.875Z,3.80
2018-02-24T18:12:04.973Z,3.80
2018-02-24T18:14:33.264Z,3.70
2018-02-24T18:17:02.030Z,3.70
2018-02-24T18:19:30.318Z,3.50
2018-02-24T18:21:58.702Z,3.50
2018-02-24T18:24:27.466Z,3.40
2018-02-24T18:26:55.786Z,3.30
2018-02-24T18:29:24.835Z,3.40
2018-02-24T18:31:53.289Z,3.40
2018-02-24T18:34:23.988Z,3.30
2018-02-24T18:36:54.482Z,3.20
2018-02-24T18:39:23.164Z,3.00
2018-02-24T18:41:52.806Z,3.00
2018-02-24T18:44:21.227Z,2.90
2018-02-24T18:46:51.788Z,2.90
2018-02-24T18:49:22.353Z,2.90
2018-02-24T18:51:50.963Z,2.80
2018-02-24T18:54:21.818Z,2.70
2018-02-24T18:56:51.455Z,2.60
2018-02-24T18:59:22.343Z,2.50
2018-02-24T19:01:51.022Z,2.50
2018-02-24T19:04:21.431Z,2.60
2018-02-24T19:06:50.410Z,2.60
2018-02-24T19:09:18.932Z,2.60
2018-02-24T19:11:50.245Z,2.50
2018-02-24T19:14:20.271Z,2.50
2018-02-24T19:16:51.220Z,2.30
2018-02-24T19:19:24.229Z,2.30
2018-02-24T19:21:56.518Z,2.40
2018-02-24T19:24:27.067Z,2.30
2018-02-24T19:26:58.452Z,2.20
2018-02-24T19:29:31.726Z,2.10
2018-02-24T19:32:02.154Z,2.20
2018-02-24T19:34:31.502Z,2.30
2018-02-24T19:36:59.853Z,2.20
2018-02-24T19:39:29.403Z,2.00
2018-02-24T19:41:57.883Z,2.00
2018-02-24T19:44:26.870Z,2.00
2018-02-24T19:46:58.606Z,2.00
2018-02-24T19:49:27.609Z,1.80
2018-02-24T19:51:55.974Z,1.80
2018-02-24T19:54:24.794Z,1.80
2018-02-24T19:56:54.375Z,1.80
2018-02-24T19:59:23.543Z,1.70
2018-02-24T20:01:51.944Z,1.70
2018-02-24T20:04:20.370Z,1.60
2018-02-24T20:06:50.897Z,1.60
2018-02-24T20:09:19.232Z,1.60
2018-02-24T20:11:47.658Z,1.50
2018-02-24T20:14:17.526Z,1.60
2018-02-24T20:16:46.418Z,1.70
2018-02-24T20:19:14.874Z,1.50
2018-02-24T20:21:44.079Z,1.50
2018-02-24T20:24:12.322Z,1.30
2018-02-24T20:26:40.642Z,1.20
2018-02-24T20:29:09.934Z,1.20
2018-02-24T20:31:38.358Z,1.20
2018-02-24T20:34:09.713Z,1.30
2018-02-24T20:36:38.147Z,1.20
2018-02-24T20:39:07.875Z,1.10
2018-02-24T20:41:38.880Z,1.10
2018-02-24T20:44:07.562Z,1.10
2018-02-24T20:46:40.914Z,1.00
2018-02-24T20:49:09.934Z,1.00
2018-02-24T20:51:38.281Z,1.00
2018-02-24T20:54:08.488Z,1.10
2018-02-24T20:56:36.850Z,1.10
2018-02-24T20:59:05.235Z,0.90
2018-02-24T21:01:33.695Z,0.90
2018-02-24T21:04:02.966Z,0.80
2018-02-24T21:06:33.430Z,0.80
2018-02-24T21:09:04.175Z,0.80
2018-02-24T21:11:33.575Z,0.80
2018-02-24T21:14:01.946Z,0.80
2018-02-24T21:16:30.682Z,0.80
2018-02-24T21:18:59.701Z,0.70
2018-02-24T21:21:28.830Z,0.60
2018-02-24T21:24:01.403Z,0.60
2018-02-24T21:26:29.694Z,0.50
2018-02-24T21:28:58.230Z,0.40
2018-02-24T21:31:26.570Z,0.50
2018-02-24T21:33:56.869Z,0.40
2018-02-24T21:36:25.322Z,0.40
2018-02-24T21:38:59.708Z,0.40
2018-02-24T21:41:32.343Z,0.40
2018-02-24T21:44:00.790Z,0.40
2018-02-24T21:46:29.395Z,0.50
2018-02-24T21:48:59.022Z,0.30
2018-02-24T21:51:27.342Z,0.20
2018-02-24T21:53:57.532Z,0.20
2018-02-24T21:56:26.830Z,0.20
2018-02-24T21:58:55.219Z,0.20
2018-02-24T22:01:24.511Z,0.10
2018-02-24T22:03:54.742Z,0.20
2018-02-24T22:06:23.302Z,0.10
2018-02-24T22:08:51.526Z,0.00
2018-02-24T22:11:21.722Z,0.00
2018-02-24T22:13:54.113Z,0.00
2018-02-24T22:16:23.361Z,-0.20
2018-02-24T22:18:51.767Z,-0.20
2018-02-24T22:21:20.694Z,-0.20
2018-02-24T22:23:49.165Z,-0.30
2018-02-24T22:26:18.842Z,-0.20
2018-02-24T22:28:47.810Z,-0.20
2018-02-24T22:31:16.431Z,-0.30
2018-02-24T22:33:44.798Z,-0.20
2018-02-24T22:36:13.538Z,-0.20
2018-02-24T22:38:44.093Z,-0.20
2018-02-24T22:41:13.333Z,-0.30
2018-02-24T22:43:43.671Z,-0.40
2018-02-24T22:46:13.672Z,-0.40
2018-02-24T22:48:50.074Z,-0.40
2018-02-24T22:51:19.418Z,-0.40
2018-02-24T22:53:49.224Z,-0.40
2018-02-24T22:56:19.793Z,-0.50
2018-02-24T22:58:49.481Z,-0.60
2018-02-24T23:01:19.466Z,-0.70
2018-02-24T23:03:50.002Z,-0.70
2018-02-24T23:06:18.302Z,-0.80
2018-02-24T23:09:09.841Z,-0.60
2018-02-24T23:11:38.146Z,-0.70
2018-02-24T23:14:08.895Z,-0.60
2018-02-24T23:16:37.328Z,-0.60
2018-02-24T23:19:05.697Z,-0.60
2018-02-24T23:21:35.018Z,-0.50
2018-02-24T23:24:03.690Z,-0.60
2018-02-24T23:26:32.061Z,-0.60
2018-02-24T23:29:02.979Z,-0.80
2018-02-24T23:31:31.282Z,-0.80
2018-02-24T23:33:59.658Z,-0.80
2018-02-24T23:36:28.093Z,-0.70
2018-02-24T23:38:58.578Z,-0.60
2018-02-24T23:41:26.945Z,-0.80
2018-02-24T23:43:56.266Z,-0.90
2018-02-24T23:46:24.667Z,-0.90
2018-02-24T23:48:53.674Z,-0.90
2018-02-24T23:51:22.502Z,-0.80
2018-02-24T23:53:52.843Z,-1.00
2018-02-24T23:56:21.221Z,-0.90
2018-02-24T23:58:50.553Z,-0.90
